Time;durP1;ratioP1;P1;durP2;ratioP2;P2;SDS_P1;SDS_P2;PMS_P1;PMS_P2;Temp;Humidity;BMP_temperature;BMP_pressure;BME280_temperature;BME280_humidity;BME280_pressure;Samples;Min_cycle;Max_cycle;Signal;HPM_P1;HPM_P2
2022/05/29 00:00:42;;;;;;;3.92;2.47;;;22.30;47.80;;;;;;6153977;28;80285;-66
2022/05/29 00:03:42;;;;;;;3.35;1.83;;;22.30;47.80;;;;;;6156410;28;80858;-67
2022/05/29 00:06:43;;;;;;;4.80;1.77;;;22.30;48.00;;;;;;6146297;28;82335;-65
2022/05/29 00:09:43;;;;;;;3.05;1.80;;;22.20;47.80;;;;;;6150957;28;80345;-66
2022/05/29 00:12:44;;;;;;;3.25;1.92;;;22.30;47.80;;;;;;6157497;28;80124;-65
2022/05/29 00:15:44;;;;;;;4.97;1.80;;;22.20;47.90;;;;;;6162516;28;81572;-65
2022/05/29 00:18:45;;;;;;;2.72;1.58;;;22.30;47.80;;;;;;6159000;28;81562;-66
2022/05/29 00:21:45;;;;;;;2.53;1.50;;;22.30;47.80;;;;;;6152115;28;80208;-64
2022/05/29 00:24:46;;;;;;;5.80;2.00;;;22.30;48.20;;;;;;6153595;28;81746;-66
2022/05/29 00:27:46;;;;;;;3.67;1.80;;;22.30;48.00;;;;;;6147967;28;80856;-65
2022/05/29 00:30:47;;;;;;;2.53;1.83;;;22.20;48.00;;;;;;6148291;28;81976;-66
2022/05/29 00:33:47;;;;;;;4.53;2.15;;;22.30;47.90;;;;;;6151442;28;82223;-66
2022/05/29 00:36:48;;;;;;;4.05;1.88;;;22.20;48.00;;;;;;6151006;28;80541;-65
2022/05/29 00:39:49;;;;;;;2.78;2.03;;;22.20;47.80;;;;;;6148173;28;80964;-66
2022/05/29 00:42:49;;;;;;;3.30;2.00;;;22.20;47.90;;;;;;6161618;28;80356;-66
2022/05/29 00:45:50;;;;;;;1.70;1.60;;;22.20;47.80;;;;;;6161299;28;80777;-66
2022/05/29 00:48:50;;;;;;;2.40;1.70;;;22.20;47.70;;;;;;6161258;28;80993;-66
2022/05/29 00:51:51;;;;;;;2.15;1.55;;;22.20;47.60;;;;;;6161191;28;80285;-66
2022/05/29 00:54:53;;;;;;;2.47;1.88;;;22.20;47.80;;;;;;6147490;28;80801;-65
2022/05/29 00:57:54;;;;;;;3.50;1.88;;;22.20;47.80;;;;;;6157189;28;81958;-65
2022/05/29 01:00:54;;;;;;;3.30;2.10;;;22.20;47.80;;;;;;6156378;28;81031;-65
2022/05/29 01:03:55;;;;;;;2.97;1.98;;;22.20;47.60;;;;;;6154671;28;80268;-65
2022/05/29 01:06:55;;;;;;;2.75;1.77;;;22.20;47.60;;;;;;6153018;28;80326;-65
2022/05/29 01:09:56;;;;;;;1.90;1.58;;;22.20;47.60;;;;;;6160646;28;80726;-65
2022/05/29 01:12:56;;;;;;;2.33;1.70;;;22.20;48.20;;;;;;6161183;28;80477;-63
2022/05/29 01:15:57;;;;;;;3.65;2.20;;;22.20;47.70;;;;;;6155875;28;80417;-63
2022/05/29 01:18:58;;;;;;;3.53;1.70;;;22.20;47.70;;;;;;6160930;28;81121;-64
2022/05/29 01:21:58;;;;;;;2.92;1.55;;;22.20;47.90;;;;;;6152860;28;80284;-64
2022/05/29 01:25:00;;;;;;;3.03;1.77;;;22.20;47.80;;;;;;6157333;28;81085;-64
2022/05/29 01:28:00;;;;;;;4.70;2.13;;;22.20;47.90;;;;;;6141611;28;80987;-64
2022/05/29 01:31:01;;;;;;;3.67;2.20;;;22.10;47.80;;;;;;6149868;28;80567;-64
2022/05/29 01:34:01;;;;;;;3.75;2.25;;;22.20;47.80;;;;;;6158847;28;80295;-64
2022/05/29 01:37:02;;;;;;;4.90;2.28;;;22.10;47.80;;;;;;6159151;28;81878;-64
2022/05/29 01:40:02;;;;;;;6.32;2.42;;;22.10;47.90;;;;;;6160770;28;80924;-64
2022/05/29 01:43:03;;;;;;;2.75;1.60;;;22.10;47.80;;;;;;6160454;28;80307;-65
2022/05/29 01:46:03;;;;;;;3.28;2.10;;;22.10;47.90;;;;;;6155982;28;81061;-65
2022/05/29 01:49:04;;;;;;;6.93;2.10;;;22.10;48.20;;;;;;6160003;28;80435;-65
2022/05/29 01:52:04;;;;;;;4.32;2.05;;;22.20;48.00;;;;;;6153099;28;80615;-66
2022/05/29 01:55:05;;;;;;;2.38;1.90;;;22.10;47.90;;;;;;6160321;28;80220;-65
2022/05/29 01:58:05;;;;;;;2.92;2.08;;;22.10;48.30;;;;;;6158943;28;81167;-65
2022/05/29 02:01:06;;;;;;;3.72;1.80;;;22.10;47.90;;;;;;6143230;28;81485;-64
2022/05/29 02:04:06;;;;;;;3.03;2.10;;;22.10;48.10;;;;;;6155530;28;80300;-64
2022/05/29 02:10:26;;;;;;;5.65;2.92;;;22.10;48.10;;;;;;6152961;28;80420;-64
2022/05/29 02:13:26;;;;;;;3.00;2.08;;;22.10;48.10;;;;;;6159133;28;80609;-64
2022/05/29 02:16:27;;;;;;;4.85;2.25;;;22.10;48.10;;;;;;6159937;28;81985;-65
2022/05/29 02:19:27;;;;;;;4.70;2.35;;;22.10;48.00;;;;;;6159349;28;81569;-65
2022/05/29 02:22:28;;;;;;;4.45;2.67;;;22.10;48.30;;;;;;6128420;28;80590;-65
2022/05/29 02:25:28;;;;;;;4.32;2.47;;;22.10;48.00;;;;;;6149415;28;83111;-65
2022/05/29 02:28:29;;;;;;;4.38;2.60;;;22.10;48.00;;;;;;6159600;28;80357;-65
2022/05/29 02:31:29;;;;;;;6.00;2.60;;;22.10;48.20;;;;;;6159908;28;80681;-65
2022/05/29 02:34:30;;;;;;;3.38;2.10;;;22.10;48.10;;;;;;6156042;28;80454;-65
2022/05/29 02:37:30;;;;;;;3.97;2.28;;;22.10;48.10;;;;;;6159889;28;80238;-64
2022/05/29 02:40:31;;;;;;;3.45;2.33;;;22.10;48.00;;;;;;6159681;28;80827;-65
2022/05/29 02:43:32;;;;;;;6.97;2.70;;;22.00;47.90;;;;;;6156792;28;80905;-64
2022/05/29 02:46:32;;;;;;;3.42;2.13;;;22.10;48.00;;;;;;6151117;28;81328;-65
2022/05/29 02:49:33;;;;;;;3.33;2.15;;;22.00;48.00;;;;;;6142892;28;80628;-65
2022/05/29 02:52:33;;;;;;;7.07;2.80;;;22.00;47.90;;;;;;6147769;28;81390;-65
2022/05/29 02:55:34;;;;;;;4.28;2.08;;;22.00;48.00;;;;;;6144557;28;80352;-65
2022/05/29 02:58:34;;;;;;;5.70;2.97;;;22.00;47.90;;;;;;6157304;28;81853;-64
2022/05/29 03:01:35;;;;;;;4.55;2.45;;;22.00;47.90;;;;;;6159076;28;81958;-64
2022/05/29 03:04:35;;;;;;;5.53;2.63;;;22.00;48.00;;;;;;6156935;28;80288;-65
2022/05/29 03:07:36;;;;;;;5.72;2.92;;;22.10;48.10;;;;;;6159130;28;82109;-64
2022/05/29 03:10:36;;;;;;;3.35;2.15;;;22.00;48.10;;;;;;6158899;28;80353;-65
2022/05/29 03:13:37;;;;;;;4.20;2.42;;;22.10;48.10;;;;;;6152046;28;81404;-64
2022/05/29 03:16:37;;;;;;;4.70;2.58;;;22.00;48.00;;;;;;6150939;28;81664;-65
2022/05/29 03:19:38;;;;;;;4.57;2.33;;;22.00;48.00;;;;;;6135701;28;81414;-64
2022/05/29 03:22:38;;;;;;;4.32;2.55;;;22.00;48.10;;;;;;6155529;28;81598;-65
2022/05/29 03:25:39;;;;;;;6.57;2.47;;;22.00;48.10;;;;;;6149930;28;80384;-64
2022/05/29 03:28:39;;;;;;;4.18;2.45;;;22.00;48.20;;;;;;6144114;28;81562;-64
2022/05/29 03:31:40;;;;;;;4.65;2.70;;;22.00;48.00;;;;;;6153596;28;80535;-64
2022/05/29 03:34:40;;;;;;;5.10;2.67;;;22.00;48.10;;;;;;6150149;28;80452;-64
2022/05/29 03:37:41;;;;;;;9.98;2.67;;;22.00;48.10;;;;;;6147504;28;80667;-65
2022/05/29 03:40:41;;;;;;;3.92;2.30;;;22.00;48.10;;;;;;6152023;28;80709;-66
2022/05/29 03:43:43;;;;;;;4.47;2.53;;;22.00;48.00;;;;;;6151229;28;80346;-65
2022/05/29 03:46:44;;;;;;;4.03;2.08;;;22.00;48.10;;;;;;6158944;28;80778;-64
2022/05/29 03:49:44;;;;;;;5.22;2.75;;;22.00;48.00;;;;;;6145523;28;80633;-64
2022/05/29 03:52:45;;;;;;;5.00;2.30;;;22.00;48.10;;;;;;6148250;28;80493;-64
2022/05/29 03:55:45;;;;;;;4.40;2.17;;;22.00;48.30;;;;;;6159892;28;81345;-64
2022/05/29 03:58:46;;;;;;;4.53;2.60;;;22.00;48.30;;;;;;6154264;28;80654;-66
2022/05/29 04:01:46;;;;;;;2.90;1.80;;;22.00;48.40;;;;;;6160019;28;80277;-64
2022/05/29 04:04:47;;;;;;;5.75;2.38;;;22.00;48.50;;;;;;6147103;28;80463;-65
2022/05/29 04:14:26;;;;;;;4.00;2.20;;;22.00;49.00;;;;;;6151331;28;80350;-65
2022/05/29 04:17:26;;;;;;;4.82;2.30;;;22.00;49.00;;;;;;6148817;28;80915;-65
2022/05/29 04:20:27;;;;;;;4.15;2.47;;;22.00;49.30;;;;;;6156233;28;80346;-65
2022/05/29 04:23:27;;;;;;;3.65;2.45;;;22.00;49.10;;;;;;6154318;28;80587;-64
2022/05/29 04:26:28;;;;;;;5.00;2.80;;;22.00;48.90;;;;;;6160293;28;80847;-63
2022/05/29 04:29:28;;;;;;;4.20;2.15;;;22.00;49.00;;;;;;6156851;28;80724;-63
2022/05/29 04:35:48;;;;;;;5.43;2.20;;;22.10;49.70;;;;;;6147577;28;80971;-65
2022/05/29 04:38:49;;;;;;;15.23;2.75;;;22.10;49.80;;;;;;6160487;28;80304;-65
2022/05/29 04:41:49;;;;;;;6.22;2.45;;;22.10;50.00;;;;;;6155602;28;80581;-65
2022/05/29 04:44:50;;;;;;;7.05;2.78;;;22.10;49.60;;;;;;6159116;28;81549;-64
2022/05/29 04:47:50;;;;;;;5.20;2.10;;;22.10;49.90;;;;;;6153365;28;81950;-65
2022/05/29 04:50:51;;;;;;;3.53;2.03;;;22.10;50.10;;;;;;6156668;28;80492;-64
2022/05/29 04:53:51;;;;;;;6.00;2.13;;;22.20;49.60;;;;;;6158422;28;81521;-68
2022/05/29 04:56:52;;;;;;;4.05;2.20;;;22.10;50.10;;;;;;6160940;28;80341;-61
2022/05/29 04:59:52;;;;;;;4.93;2.72;;;22.20;50.00;;;;;;6157806;28;80620;-63
2022/05/29 05:02:53;;;;;;;3.83;1.95;;;22.20;49.70;;;;;;6161096;28;80337;-66
2022/05/29 05:05:53;;;;;;;4.43;2.70;;;22.20;49.80;;;;;;6146603;28;81241;-66
2022/05/29 05:08:54;;;;;;;10.52;2.53;;;22.20;50.30;;;;;;6159414;28;80432;-66
2022/05/29 05:11:54;;;;;;;5.03;2.15;;;22.20;50.20;;;;;;6160244;28;80819;-66
2022/05/29 05:14:54;;;;;;;4.82;2.15;;;22.20;50.20;;;;;;6160970;28;81381;-66
2022/05/29 05:17:55;;;;;;;4.60;1.95;;;22.20;50.30;;;;;;6160522;28;80855;-64
2022/05/29 05:20:56;;;;;;;3.20;1.83;;;22.30;51.20;;;;;;6160956;28;80363;-65
2022/05/29 05:23:56;;;;;;;14.02;2.08;;;22.30;50.70;;;;;;6159338;28;80863;-65
2022/05/29 05:26:58;;;;;;;3.63;1.85;;;22.30;50.80;;;;;;6159726;28;80471;-65
2022/05/29 05:29:58;;;;;;;7.18;2.47;;;22.40;50.80;;;;;;6156523;28;80888;-65
2022/05/29 05:32:59;;;;;;;4.88;1.80;;;22.40;51.20;;;;;;6149879;28;81643;-65
2022/05/29 05:36:00;;;;;;;7.75;2.53;;;22.40;50.80;;;;;;6160216;28;80754;-65
2022/05/29 05:39:00;;;;;;;6.80;2.60;;;22.40;50.90;;;;;;6152172;28;82151;-65
2022/05/29 05:42:01;;;;;;;4.00;2.05;;;22.40;51.00;;;;;;6138490;28;81079;-65
2022/05/29 05:45:01;;;;;;;7.82;2.95;;;22.40;51.20;;;;;;6145181;28;80555;-65
2022/05/29 05:48:01;;;;;;;8.13;4.05;;;22.40;51.20;;;;;;6150960;28;80609;-66
2022/05/29 05:51:02;;;;;;;9.45;4.10;;;22.50;51.60;;;;;;6150652;28;82048;-66
2022/05/29 05:54:02;;;;;;;15.32;5.32;;;22.50;51.40;;;;;;6150409;28;80381;-65
2022/05/29 05:57:05;;;;;;;12.15;6.85;;;22.50;51.50;;;;;;6148707;28;81752;-66
2022/05/29 06:00:05;;;;;;;14.35;5.85;;;22.50;52.20;;;;;;6144368;28;81501;-66
2022/05/29 06:03:08;;;;;;;13.48;6.78;;;22.50;51.90;;;;;;6143048;28;82084;-66
2022/05/29 06:06:09;;;;;;;14.23;6.57;;;22.50;52.30;;;;;;6144026;28;81480;-66
2022/05/29 06:09:09;;;;;;;13.27;7.28;;;22.50;52.50;;;;;;6144577;28;81478;-66
2022/05/29 06:12:10;;;;;;;11.63;6.85;;;22.50;52.40;;;;;;6145426;28;80686;-67
2022/05/29 06:15:11;;;;;;;14.00;8.18;;;22.50;52.50;;;;;;6152166;28;81482;-65
2022/05/29 06:18:11;;;;;;;14.30;7.65;;;22.50;52.60;;;;;;6143663;28;80398;-66
2022/05/29 06:21:12;;;;;;;12.57;7.38;;;22.50;52.90;;;;;;6144699;28;80674;-66
2022/05/29 06:24:12;;;;;;;17.88;7.45;;;22.60;53.20;;;;;;6142785;28;81324;-65
2022/05/29 06:27:13;;;;;;;17.85;8.00;;;22.60;52.70;;;;;;6143967;28;81414;-65
2022/05/29 06:30:14;;;;;;;14.25;7.57;;;22.50;52.60;;;;;;6145246;28;84858;-68
2022/05/29 06:33:14;;;;;;;16.50;7.68;;;22.60;52.70;;;;;;6141207;28;81566;-67
2022/05/29 06:36:15;;;;;;;18.48;7.78;;;22.60;52.70;;;;;;6151526;28;81422;-67
2022/05/29 06:39:15;;;;;;;11.00;6.80;;;22.60;52.40;;;;;;6145793;28;80527;-66
2022/05/29 06:42:16;;;;;;;12.40;6.93;;;22.60;52.20;;;;;;6117351;28;81075;-66
2022/05/29 06:45:16;;;;;;;15.10;7.10;;;22.60;52.90;;;;;;6145775;28;81309;-66
2022/05/29 06:48:17;;;;;;;9.30;5.38;;;22.60;52.50;;;;;;6135785;28;80945;-65
2022/05/29 06:51:19;;;;;;;10.70;5.72;;;22.60;52.80;;;;;;6138235;28;81297;-66
2022/05/29 06:54:19;;;;;;;11.35;5.38;;;22.60;52.60;;;;;;6139826;28;81156;-66
2022/05/29 06:57:36;;;;;;;9.02;5.32;;;22.70;52.60;;;;;;6139290;28;80730;-66
2022/05/29 07:07:15;;;;;;;8.10;4.88;;;22.80;52.90;;;;;;6145493;28;82133;-65
2022/05/29 07:10:15;;;;;;;8.70;4.97;;;22.70;52.80;;;;;;6145847;28;80932;-65
2022/05/29 07:13:16;;;;;;;13.30;5.07;;;22.80;52.90;;;;;;6143412;28;80458;-66
2022/05/29 07:16:17;;;;;;;8.93;4.22;;;22.80;53.00;;;;;;6146584;28;80033;-65
2022/05/29 07:19:20;;;;;;;12.43;5.05;;;22.80;52.70;;;;;;6159879;28;83244;-64
2022/05/29 07:22:20;;;;;;;19.65;4.18;;;22.80;52.70;;;;;;6158561;28;80235;-66
2022/05/29 07:25:21;;;;;;;6.13;3.50;;;22.80;52.70;;;;;;6157039;28;80686;-68
2022/05/29 07:28:22;;;;;;;8.98;4.30;;;22.80;52.60;;;;;;6163309;28;80708;-68
2022/05/29 07:31:22;;;;;;;10.98;3.47;;;22.80;52.40;;;;;;6160325;28;80710;-65
2022/05/29 07:34:24;;;;;;;6.95;3.22;;;22.80;52.40;;;;;;6158279;28;80348;-64
2022/05/29 07:37:24;;;;;;;7.47;3.60;;;22.80;52.60;;;;;;6158596;28;80571;-67
2022/05/29 07:40:25;;;;;;;11.63;3.00;;;22.80;52.60;;;;;;6151237;28;80686;-67
2022/05/29 07:43:26;;;;;;;5.40;3.80;;;22.80;52.40;;;;;;6161295;28;81111;-68
2022/05/29 07:46:27;;;;;;;6.38;3.15;;;22.80;52.40;;;;;;6153952;28;80214;-64
2022/05/29 07:49:27;;;;;;;6.80;2.90;;;22.80;52.40;;;;;;6162953;28;80948;-67
2022/05/29 07:52:28;;;;;;;7.88;3.15;;;22.80;52.10;;;;;;6158508;28;80663;-64
2022/05/29 07:55:28;;;;;;;5.25;2.78;;;22.80;52.20;;;;;;6154301;28;81473;-66
2022/05/29 07:58:29;;;;;;;6.63;2.95;;;22.80;52.40;;;;;;6159872;28;80417;-66
2022/05/29 08:01:29;;;;;;;9.43;3.45;;;22.80;52.20;;;;;;6157899;28;81591;-68
2022/05/29 08:04:30;;;;;;;5.00;2.38;;;22.80;52.30;;;;;;6150214;28;82186;-68
2022/05/29 08:07:30;;;;;;;6.93;2.30;;;22.80;52.60;;;;;;6147676;28;81655;-68
2022/05/29 08:10:31;;;;;;;4.60;2.40;;;22.80;52.10;;;;;;6140242;28;80581;-67
2022/05/29 08:13:31;;;;;;;5.38;2.42;;;22.80;51.80;;;;;;6146537;28;80192;-67
2022/05/29 08:16:33;;;;;;;4.60;2.10;;;22.80;52.20;;;;;;6151779;28;82685;-68
2022/05/29 08:19:34;;;;;;;6.07;3.15;;;22.80;52.00;;;;;;6144936;28;80778;-67
2022/05/29 08:22:35;;;;;;;4.88;2.40;;;22.90;52.20;;;;;;6140994;28;82309;-68
2022/05/29 08:32:13;;;;;;;6.72;2.60;;;22.90;52.40;;;;;;6139716;28;80290;-68
2022/05/29 08:35:14;;;;;;;2.90;2.30;;;22.90;52.20;;;;;;6142097;28;80427;-66
2022/05/29 08:38:14;;;;;;;9.10;2.50;;;22.90;52.40;;;;;;6139048;28;80574;-68
2022/05/29 08:41:15;;;;;;;6.20;2.60;;;22.90;52.40;;;;;;6144364;28;80462;-68
2022/05/29 08:44:15;;;;;;;11.07;2.50;;;22.90;52.10;;;;;;6140840;28;80770;-67
2022/05/29 08:47:16;;;;;;;6.05;2.35;;;23.00;52.50;;;;;;6146262;28;80336;-67
2022/05/29 08:50:16;;;;;;;3.80;2.05;;;23.00;52.60;;;;;;6159868;28;80124;-67
2022/05/29 08:53:17;;;;;;;4.65;2.13;;;23.00;52.70;;;;;;6150522;28;80889;-68
2022/05/29 08:56:17;;;;;;;9.68;2.50;;;23.00;52.70;;;;;;6147591;28;80394;-68
2022/05/29 08:59:20;;;;;;;5.57;2.20;;;23.00;52.60;;;;;;6150608;28;83785;-66
2022/05/29 09:02:21;;;;;;;8.00;2.38;;;23.00;51.50;;;;;;6143460;28;80328;-67
2022/05/29 09:05:21;;;;;;;2.33;1.73;;;23.00;51.30;;;;;;6142971;28;80795;-66
2022/05/29 09:08:22;;;;;;;6.20;2.25;;;23.00;50.30;;;;;;6142564;28;80773;-67
2022/05/29 09:11:23;;;;;;;3.35;2.03;;;23.00;49.20;;;;;;6151116;28;81363;-67
2022/05/29 09:14:23;;;;;;;5.75;2.22;;;23.00;48.50;;;;;;6147236;28;80458;-66
2022/05/29 09:17:24;;;;;;;4.68;2.58;;;23.00;48.40;;;;;;6155110;28;80440;-67
2022/05/29 09:20:24;;;;;;;5.25;2.50;;;23.00;47.30;;;;;;6152490;28;83342;-66
2022/05/29 09:23:25;;;;;;;6.30;2.47;;;23.00;47.70;;;;;;6150430;28;80385;-67
2022/05/29 09:26:26;;;;;;;7.00;3.03;;;23.00;47.40;;;;;;6157776;28;82035;-68
2022/05/29 09:29:26;;;;;;;6.40;2.35;;;23.00;47.60;;;;;;6158721;28;80634;-68
2022/05/29 09:32:27;;;;;;;8.98;2.80;;;23.00;47.40;;;;;;6158009;28;80324;-67
2022/05/29 09:35:27;;;;;;;5.25;2.35;;;23.00;48.00;;;;;;6158666;28;80680;-67
2022/05/29 09:38:28;;;;;;;11.35;2.75;;;23.00;47.40;;;;;;6159137;28;81458;-68
2022/05/29 09:41:28;;;;;;;7.20;2.60;;;23.00;47.30;;;;;;6149278;28;80513;-69
2022/05/29 09:44:29;;;;;;;12.93;3.25;;;23.00;48.40;;;;;;6161038;28;81899;-68
2022/05/29 09:50:48;;;;;;;7.03;2.53;;;23.10;49.30;;;;;;6156496;28;80264;-66
2022/05/29 09:53:49;;;;;;;8.90;3.30;;;23.10;48.10;;;;;;6157926;28;80345;-66
2022/05/29 09:56:50;;;;;;;8.15;2.63;;;23.10;47.80;;;;;;6149716;28;80266;-61
2022/05/29 09:59:50;;;;;;;6.30;2.35;;;23.10;48.30;;;;;;6156162;28;80880;-64
2022/05/29 10:02:51;;;;;;;6.10;2.35;;;23.10;47.70;;;;;;6153141;28;80232;-64
2022/05/29 10:05:52;;;;;;;14.93;2.42;;;23.10;49.70;;;;;;6147824;28;81364;-66
2022/05/29 10:08:52;;;;;;;5.40;2.33;;;23.20;49.40;;;;;;6157534;28;81498;-66
2022/05/29 10:11:53;;;;;;;8.82;2.30;;;23.20;49.70;;;;;;6150497;28;80817;-63
2022/05/29 10:14:54;;;;;;;10.95;2.20;;;23.10;48.80;;;;;;6148385;28;81562;-65
2022/05/29 10:17:54;;;;;;;6.78;2.50;;;23.10;47.90;;;;;;6157127;28;80482;-66
2022/05/29 10:20:55;;;;;;;8.20;2.50;;;23.20;47.80;;;;;;6152897;28;80915;-67
2022/05/29 10:23:58;;;;;;;8.10;2.17;;;23.20;46.60;;;;;;6155513;28;80402;-67
2022/05/29 10:26:58;;;;;;;4.40;2.08;;;23.20;47.00;;;;;;6159633;28;80442;-67
2022/05/29 10:29:59;;;;;;;12.45;2.00;;;23.20;46.40;;;;;;6158406;28;80194;-66
2022/05/29 10:32:59;;;;;;;4.88;1.67;;;23.20;46.40;;;;;;6159237;28;80692;-66
2022/05/29 10:36:02;;;;;;;5.45;2.28;;;23.20;45.80;;;;;;6149753;28;80438;-66
2022/05/29 10:39:03;;;;;;;6.32;1.73;;;23.20;46.00;;;;;;6159259;28;80335;-66
2022/05/29 10:42:03;;;;;;;6.10;1.85;;;23.20;45.80;;;;;;6150009;28;83073;-66
2022/05/29 10:45:04;;;;;;;6.07;1.75;;;23.20;45.90;;;;;;6148479;28;80630;-67
2022/05/29 10:48:04;;;;;;;2.90;1.58;;;23.20;44.40;;;;;;6159071;28;80963;-67
2022/05/29 10:51:05;;;;;;;3.03;1.75;;;23.10;45.20;;;;;;6149112;28;81388;-67
2022/05/29 10:54:05;;;;;;;2.55;1.40;;;23.10;44.50;;;;;;6146970;28;81000;-66
2022/05/29 10:57:06;;;;;;;4.32;1.70;;;23.10;44.90;;;;;;6155812;28;80409;-66
2022/05/29 11:00:07;;;;;;;4.32;1.80;;;23.10;44.50;;;;;;6157752;28;80415;-66
2022/05/29 11:03:21;;;;;;;4.90;1.50;;;23.10;44.30;;;;;;6158520;28;81867;-67
2022/05/29 11:06:21;;;;;;;5.90;1.80;;;23.10;44.50;;;;;;6135572;28;85285;-67
2022/05/29 11:09:22;;;;;;;1.40;1.23;;;23.10;44.30;;;;;;6122756;28;80372;-67
2022/05/29 11:12:22;;;;;;;4.63;1.60;;;23.10;44.40;;;;;;6135989;28;80538;-66
2022/05/29 11:15:23;;;;;;;2.00;1.55;;;23.10;44.40;;;;;;6131243;28;80488;-67
2022/05/29 11:18:23;;;;;;;2.13;1.70;;;23.10;44.20;;;;;;6133156;28;81882;-67
2022/05/29 11:21:24;;;;;;;4.72;1.92;;;23.00;44.50;;;;;;6135467;28;80360;-67
2022/05/29 11:24:25;;;;;;;2.83;1.30;;;23.00;43.80;;;;;;6121478;28;80187;-67
2022/05/29 11:27:25;;;;;;;3.10;1.23;;;23.00;43.50;;;;;;6111159;28;87592;-66
2022/05/29 11:30:26;;;;;;;2.90;1.65;;;22.90;41.70;;;;;;6127785;28;80199;-66
2022/05/29 11:33:26;;;;;;;4.65;1.60;;;22.90;42.00;;;;;;6133491;28;82127;-67
2022/05/29 11:36:27;;;;;;;2.80;1.65;;;22.90;42.00;;;;;;6130077;28;80570;-67
2022/05/29 11:39:27;;;;;;;2.90;1.40;;;22.90;41.60;;;;;;6135501;28;80570;-66
2022/05/29 11:42:28;;;;;;;3.67;1.65;;;22.90;41.70;;;;;;6135133;28;80862;-67
2022/05/29 11:51:06;;;;;;;2.17;1.50;;;22.90;41.40;;;;;;6128310;28;80623;-67
2022/05/29 11:52:08;;;;;;;3.67;1.60;;;22.90;42.40;;;;;;6131415;28;83245;-66
2022/05/29 11:55:08;;;;;;;1.50;1.10;;;22.90;41.80;;;;;;6123738;28;80775;-66
2022/05/29 11:58:09;;;;;;;2.05;1.30;;;22.90;42.20;;;;;;6136085;28;81553;-66
2022/05/29 12:01:10;;;;;;;2.40;1.30;;;22.90;42.50;;;;;;6139319;28;80672;-66
2022/05/29 12:04:10;;;;;;;2.35;1.50;;;22.90;41.90;;;;;;6138932;28;80319;-66
2022/05/29 12:07:11;;;;;;;4.25;1.27;;;22.90;42.50;;;;;;6139266;28;80398;-66
2022/05/29 12:10:11;;;;;;;2.42;1.50;;;22.90;42.40;;;;;;6133530;28;80403;-66
2022/05/29 12:13:12;;;;;;;1.70;1.15;;;22.80;42.40;;;;;;6138931;28;80612;-66
2022/05/29 12:16:12;;;;;;;2.70;1.45;;;22.80;42.70;;;;;;6136486;28;81422;-66
2022/05/29 12:19:13;;;;;;;1.80;1.33;;;22.90;42.60;;;;;;6133311;28;82070;-66
2022/05/29 12:22:13;;;;;;;3.92;1.63;;;22.90;42.60;;;;;;6138153;28;80531;-66
2022/05/29 12:25:14;;;;;;;2.55;1.30;;;22.90;42.60;;;;;;6135660;28;80270;-62
2022/05/29 12:28:14;;;;;;;1.85;1.40;;;22.90;42.90;;;;;;6128095;28;81758;-66
2022/05/29 12:31:15;;;;;;;8.00;1.80;;;23.00;43.10;;;;;;6133693;28;81185;-66
2022/05/29 12:34:16;;;;;;;5.18;1.73;;;23.00;43.60;;;;;;6131329;28;81399;-66
2022/05/29 12:37:17;;;;;;;4.15;1.50;;;23.00;43.20;;;;;;6125442;28;80272;-66
2022/05/29 12:40:17;;;;;;;3.00;1.40;;;23.00;40.50;;;;;;6134495;28;80592;-64
2022/05/29 12:43:18;;;;;;;5.60;1.88;;;23.00;42.20;;;;;;6117305;28;81605;-66
2022/05/29 12:46:18;;;;;;;5.72;2.08;;;23.00;42.90;;;;;;6122645;28;80573;-65
2022/05/29 12:49:19;;;;;;;2.47;1.30;;;23.00;42.80;;;;;;6131213;28;80544;-65
2022/05/29 12:52:19;;;;;;;3.13;1.50;;;23.10;42.60;;;;;;6143869;28;80606;-66
2022/05/29 12:55:20;;;;;;;3.22;1.80;;;23.10;41.50;;;;;;6143834;28;81690;-66
2022/05/29 12:58:20;;;;;;;3.85;1.50;;;23.10;41.90;;;;;;6144897;28;80384;-66
2022/05/29 13:01:21;;;;;;;6.68;1.75;;;23.10;41.00;;;;;;6142413;28;80825;-65
2022/05/29 13:04:21;;;;;;;2.78;1.75;;;23.00;40.40;;;;;;6144331;28;80760;-66
2022/05/29 13:07:22;;;;;;;2.60;1.67;;;23.00;41.00;;;;;;6145670;28;80658;-65
2022/05/29 13:10:25;;;;;;;4.82;1.70;;;23.00;40.30;;;;;;6142233;28;80463;-66
2022/05/29 13:13:26;;;;;;;5.47;1.98;;;23.00;40.80;;;;;;6150226;28;80526;-65
2022/05/29 13:16:26;;;;;;;6.85;1.90;;;23.00;40.00;;;;;;6149140;28;80803;-67
2022/05/29 13:19:27;;;;;;;4.95;1.90;;;23.00;39.80;;;;;;6143734;28;80585;-66
2022/05/29 13:22:27;;;;;;;7.45;2.00;;;22.90;39.10;;;;;;6143937;28;81456;-67
2022/05/29 13:25:28;;;;;;;3.65;1.70;;;22.90;39.10;;;;;;6138612;28;83710;-67
2022/05/29 13:28:28;;;;;;;3.53;1.67;;;22.90;38.50;;;;;;6146281;28;80769;-65
2022/05/29 13:31:31;;;;;;;4.40;1.70;;;22.90;39.60;;;;;;6140720;28;80396;-66
2022/05/29 13:34:32;;;;;;;3.40;1.80;;;22.90;40.30;;;;;;6140282;28;80509;-66
2022/05/29 13:37:32;;;;;;;2.97;1.50;;;22.90;38.90;;;;;;6144413;28;80470;-66
2022/05/29 13:40:34;;;;;;;2.92;1.50;;;22.90;38.70;;;;;;6145194;28;80751;-66
2022/05/29 13:43:34;;;;;;;5.10;1.58;;;22.90;39.20;;;;;;6147717;28;80308;-66
2022/05/29 13:46:35;;;;;;;4.63;2.00;;;22.90;38.70;;;;;;6155473;28;81468;-67
2022/05/29 13:49:35;;;;;;;5.30;1.90;;;22.80;39.20;;;;;;6163519;28;80562;-66
2022/05/29 13:52:36;;;;;;;3.50;1.70;;;22.80;39.20;;;;;;6155099;28;81261;-66
2022/05/29 13:55:36;;;;;;;4.25;1.50;;;22.90;40.20;;;;;;6151321;28;80975;-65
2022/05/29 14:05:15;;;;;;;2.00;1.48;;;22.90;40.90;;;;;;6157539;28;80638;-65
2022/05/29 14:08:16;;;;;;;5.00;1.63;;;22.90;41.40;;;;;;6154098;28;80412;-65
2022/05/29 14:11:16;;;;;;;2.65;1.67;;;22.90;41.30;;;;;;6158975;28;80369;-65
2022/05/29 14:14:17;;;;;;;3.38;1.80;;;22.90;41.60;;;;;;6160564;28;80395;-65
2022/05/29 14:17:17;;;;;;;3.78;1.80;;;22.90;41.90;;;;;;6160855;28;81596;-65
2022/05/29 14:20:18;;;;;;;3.80;2.13;;;22.90;42.20;;;;;;6159213;28;80808;-65
2022/05/29 14:23:18;;;;;;;4.75;1.65;;;22.90;42.40;;;;;;6159635;28;80221;-65
2022/05/29 14:26:20;;;;;;;1.98;1.13;;;22.90;42.20;;;;;;6161402;28;80343;-65
2022/05/29 14:29:20;;;;;;;3.53;1.70;;;22.80;42.70;;;;;;6167148;28;80159;-66
2022/05/29 14:32:21;;;;;;;20.52;1.73;;;22.90;42.60;;;;;;6153248;28;80617;-69
2022/05/29 14:35:21;;;;;;;4.85;1.52;;;22.80;42.70;;;;;;6159124;28;80884;-70
2022/05/29 14:38:22;;;;;;;3.28;1.60;;;22.80;43.00;;;;;;6147188;28;80304;-68
2022/05/29 14:41:22;;;;;;;2.25;1.40;;;22.80;42.70;;;;;;6149949;28;80960;-70
2022/05/29 14:44:23;;;;;;;3.40;1.58;;;22.90;42.90;;;;;;6142082;28;80626;-68
2022/05/29 14:47:23;;;;;;;7.97;1.63;;;22.80;43.10;;;;;;6142659;28;81381;-68
2022/05/29 14:50:24;;;;;;;3.28;1.85;;;22.80;43.20;;;;;;6139202;28;81156;-69
2022/05/29 14:53:24;;;;;;;3.35;1.73;;;22.80;43.00;;;;;;6137857;28;81590;-70
2022/05/29 14:56:25;;;;;;;2.58;1.35;;;22.80;43.70;;;;;;6138874;28;80286;-68
2022/05/29 14:59:25;;;;;;;2.10;1.50;;;22.80;43.70;;;;;;6153209;28;81528;-67
2022/05/29 15:02:26;;;;;;;6.18;1.77;;;22.80;43.70;;;;;;6159861;28;82026;-68
2022/05/29 15:05:26;;;;;;;7.63;2.15;;;22.80;44.40;;;;;;6151075;28;80393;-67
2022/05/29 15:11:46;;;;;;;5.43;1.80;;;22.70;44.50;;;;;;6148280;28;80430;-69
2022/05/29 15:14:47;;;;;;;5.65;1.95;;;22.70;44.30;;;;;;6153185;28;80603;-66
2022/05/29 15:17:47;;;;;;;7.85;2.08;;;22.70;44.50;;;;;;6159791;28;81383;-68
2022/05/29 15:24:14;;;;;;;3.17;1.30;;;22.70;45.20;;;;;;6149408;28;80723;-68
2022/05/29 15:27:14;;;;;;;3.28;1.98;;;22.70;44.90;;;;;;6151901;28;80600;-69
2022/05/29 15:30:17;;;;;;;3.60;1.52;;;22.70;44.60;;;;;;6156656;28;80546;-70
2022/05/29 15:33:18;;;;;;;2.97;1.40;;;22.70;44.70;;;;;;6146817;28;83667;-71
2022/05/29 15:36:18;;;;;;;2.55;1.80;;;22.70;44.70;;;;;;6161272;28;82018;-69
2022/05/29 15:39:19;;;;;;;3.08;1.77;;;22.70;45.00;;;;;;6158606;28;80463;-69
2022/05/29 15:42:19;;;;;;;5.90;1.85;;;22.70;45.50;;;;;;6156082;28;81046;-68
2022/05/29 15:45:20;;;;;;;5.28;1.90;;;22.70;45.70;;;;;;6153886;28;81868;-69
2022/05/29 15:48:20;;;;;;;2.42;1.42;;;22.80;45.60;;;;;;6145146;28;80281;-69
2022/05/29 15:51:21;;;;;;;5.75;1.60;;;22.70;45.90;;;;;;6158954;28;80174;-70
2022/05/29 15:54:21;;;;;;;3.42;1.60;;;22.70;45.80;;;;;;6145983;28;80420;-69
2022/05/29 15:57:22;;;;;;;3.90;1.15;;;22.70;46.10;;;;;;6150670;28;81822;-70
2022/05/29 16:00:23;;;;;;;2.80;1.50;;;22.70;46.20;;;;;;6162398;28;81993;-69
2022/05/29 16:03:23;;;;;;;1.73;1.42;;;22.70;45.90;;;;;;6158954;28;80387;-70
2022/05/29 16:06:24;;;;;;;4.53;1.40;;;22.70;46.50;;;;;;6153623;28;80883;-68
2022/05/29 16:09:24;;;;;;;2.67;1.48;;;22.70;46.50;;;;;;6158661;28;80999;-70
2022/05/29 16:12:25;;;;;;;3.35;1.70;;;22.70;47.40;;;;;;6161599;28;82724;-70
2022/05/29 16:15:25;;;;;;;2.90;1.95;;;22.80;46.90;;;;;;6162080;28;81467;-70
2022/05/29 16:18:26;;;;;;;2.78;1.40;;;22.80;46.50;;;;;;6161974;28;80931;-70
2022/05/29 16:21:27;;;;;;;5.30;1.77;;;22.70;46.80;;;;;;6160478;28;80865;-69
2022/05/29 16:24:27;;;;;;;4.00;1.50;;;22.80;46.80;;;;;;6160094;28;86024;-70